Погода Ангольна неделю

Араукания, Чили

23 - 29 февраля
  • 23февраля
    Сегодня
    +11°
    +25°
    Ясно и безоблачно
    ВремяПогодаТемператураВлажностьДавлениеВетер, м/сВероятность осадков
    00:00Ясно и безоблачно+13°C69 %759 мм3.9 м/с5 %
    03:00Ясно и безоблачно+11°C78 %759 мм3.5 м/с5 %
    06:00Практически безоблачно+10°C87 %759 мм4.0 м/с5 %
    09:00Небольшая облачность+12°C79 %759 мм5.0 м/с4 %
    12:00Ясно и безоблачно+18°C49 %758 мм5.7 м/с5 %
    15:00Ясно и безоблачно+23°C34 %757 мм6.0 м/с5 %
    18:00Ясно и безоблачно+24°C33 %756 мм6.4 м/с5 %
    21:00Ясно и безоблачно+17°C51 %757 мм5.7 м/с5 %
  • 24февраля
    Суббота
    +13°
    +29°
    Ясно и безоблачно
    ВремяПогодаТемператураВлажностьДавлениеВетер, м/сВероятность осадков
    00:00Ясно и безоблачно+13°C57 %757 мм4.6 м/с5 %
    03:00Ясно и безоблачно+12°C51 %756 мм4.2 м/с5 %
    06:00Небольшая облачность+11°C53 %755 мм4.3 м/с5 %
    09:00Облачно с прояснениями+14°C52 %756 мм4.8 м/с5 %
    12:00Ясно и безоблачно+21°C35 %756 мм5.4 м/с5 %
    15:00Ясно и безоблачно+26°C22 %755 мм5.7 м/с5 %
    18:00Ясно и безоблачно+28°C21 %755 мм5.9 м/с5 %
    21:00Ясно и безоблачно+21°C36 %756 мм4.0 м/с5 %
  • 25февраля
    Воскресенье
    +11°
    +27°
    Облачно с прояснениями
    ВремяПогодаТемператураВлажностьДавлениеВетер, м/сВероятность осадков
    00:00Ясно и безоблачно+16°C48 %756 мм3.1 м/с5 %
    03:00Ясно и безоблачно+15°C55 %756 мм3.5 м/с5 %
    06:00Ясно и безоблачно+14°C56 %755 мм3.6 м/с5 %
    09:00Практически безоблачно+16°C46 %756 мм4.3 м/с5 %
    12:00Облачно с прояснениями+21°C32 %756 мм5.4 м/с5 %
    15:00Облачно с прояснениями+26°C24 %756 мм5.7 м/с5 %
    18:00Облачно с прояснениями+26°C22 %755 мм6.1 м/с5 %
    21:00Ясно и безоблачно+20°C30 %756 мм4.2 м/с5 %
  • 26февраля
    Понедельник
    +10°
    +26°
    Практически безоблачно
    ВремяПогодаТемператураВлажностьДавлениеВетер, м/сВероятность осадков
    00:00Ясно и безоблачно+14°C54 %757 мм3.5 м/с5 %
    03:00Ясно и безоблачно+13°C58 %757 мм3.5 м/с5 %
    06:00Ясно и безоблачно+12°C60 %756 мм3.4 м/с5 %
    09:00Ясно и безоблачно+15°C58 %757 мм4.3 м/с5 %
    12:00Практически безоблачно+21°C39 %757 мм5.3 м/с5 %
    15:00Практически безоблачно+26°C25 %756 мм5.1 м/с5 %
    18:00Ясно и безоблачно+26°C37 %756 мм5.1 м/с5 %
    21:00Ясно и безоблачно+20°C56 %757 мм3.8 м/с5 %
  • 27февраля
    Вторник
    +14°
    +28°
    Ясно и безоблачно
    ВремяПогодаТемператураВлажностьДавлениеВетер, м/сВероятность осадков
    00:00Ясно и безоблачно+15°C73 %757 мм3.2 м/с5 %
    03:00Ясно и безоблачно+13°C84 %756 мм3.6 м/с5 %
    06:00Практически безоблачно+11°C88 %755 мм3.5 м/с5 %
    09:00Практически безоблачно+14°C70 %756 мм3.7 м/с5 %
    12:00Практически безоблачно+22°C37 %756 мм4.8 м/с5 %
    15:00Ясно и безоблачно+27°C34 %755 мм5.4 м/с5 %
    18:00Ясно и безоблачно+26°C48 %754 мм6.6 м/с5 %
    21:00Ясно и безоблачно+21°C70 %755 мм4.9 м/с5 %
Мы используем cookies
Соглашаюсь